Time;durP1;ratioP1;P1;durP2;ratioP2;P2;SDS_P1;SDS_P2;PMS_P1;PMS_P2;Temp;Humidity;BMP_temperature;BMP_pressure;BME280_temperature;BME280_humidity;BME280_pressure;Samples;Min_cycle;Max_cycle;Signal;HPM_P1;HPM_P2
2023/07/03 00:00:46;;;;;;;6.43;3.97;;;16.50;59.80;;;;;;5053147;28;20468;-58
2023/07/03 00:03:14;;;;;;;9.90;3.83;;;16.50;60.30;;;;;;5054171;28;20471;-59
2023/07/03 00:05:43;;;;;;;7.07;3.50;;;16.40;60.70;;;;;;5054244;28;20440;-59
2023/07/03 00:08:09;;;;;;;8.07;3.70;;;16.40;60.80;;;;;;5053451;28;20452;-58
2023/07/03 00:10:36;;;;;;;8.30;3.30;;;16.40;61.00;;;;;;5053920;28;20471;-59
2023/07/03 00:13:04;;;;;;;5.30;3.50;;;16.40;61.10;;;;;;5053632;28;20447;-58
2023/07/03 00:15:31;;;;;;;5.70;3.90;;;16.40;61.10;;;;;;5053751;28;20453;-59
2023/07/03 00:17:57;;;;;;;6.10;4.43;;;16.40;61.20;;;;;;5053297;28;20523;-59
2023/07/03 00:20:27;;;;;;;7.43;3.63;;;16.40;61.20;;;;;;5053350;28;20444;-60
2023/07/03 00:22:54;;;;;;;10.17;4.43;;;16.40;61.20;;;;;;5053364;28;20448;-59
2023/07/03 00:25:21;;;;;;;5.30;3.83;;;16.40;61.20;;;;;;5053278;28;20493;-60
2023/07/03 00:27:48;;;;;;;6.70;3.90;;;16.40;61.20;;;;;;5055558;28;20450;-58
2023/07/03 00:30:16;;;;;;;7.50;3.80;;;16.40;61.30;;;;;;5057221;28;20450;-59
2023/07/03 00:32:43;;;;;;;6.90;3.77;;;16.30;61.20;;;;;;5057248;28;20466;-58
2023/07/03 00:35:10;;;;;;;9.33;3.80;;;16.30;61.20;;;;;;5057257;28;20444;-59
2023/07/03 00:37:38;;;;;;;10.97;4.50;;;16.30;61.40;;;;;;5057039;28;20472;-59
2023/07/03 00:40:06;;;;;;;7.73;3.90;;;16.20;61.40;;;;;;5057153;28;20451;-59
2023/07/03 00:42:33;;;;;;;6.70;4.83;;;16.20;61.60;;;;;;5056754;28;20468;-58
2023/07/03 00:45:00;;;;;;;5.93;3.33;;;16.20;61.70;;;;;;5057400;28;20453;-59
2023/07/03 00:47:27;;;;;;;5.03;3.87;;;16.20;61.80;;;;;;5056916;28;20440;-60
2023/07/03 00:49:54;;;;;;;6.47;4.03;;;16.10;62.00;;;;;;5057038;28;20519;-58
2023/07/03 00:52:22;;;;;;;7.40;3.83;;;16.10;62.10;;;;;;5056600;28;20471;-59
2023/07/03 00:54:50;;;;;;;10.60;4.60;;;16.10;62.20;;;;;;5057171;28;20543;-57
2023/07/03 00:57:18;;;;;;;11.17;4.87;;;16.10;62.30;;;;;;5056520;28;20508;-59
2023/07/03 00:59:44;;;;;;;9.07;3.70;;;16.10;62.60;;;;;;5056677;28;21023;-59
2023/07/03 01:02:16;;;;;;;9.17;4.43;;;16.10;62.70;;;;;;5057268;28;20460;-59
2023/07/03 01:04:49;;;;;;;7.10;3.73;;;16.00;62.90;;;;;;5056779;28;20443;-59
2023/07/03 01:07:20;;;;;;;5.60;3.77;;;16.00;63.00;;;;;;5056741;28;20836;-58
2023/07/03 01:09:53;;;;;;;10.40;4.03;;;16.00;63.20;;;;;;5056875;28;20910;-58
2023/07/03 01:12:21;;;;;;;5.93;3.90;;;15.90;63.40;;;;;;5057465;28;20827;-59
2023/07/03 01:14:49;;;;;;;9.00;4.37;;;15.90;63.80;;;;;;5056845;28;20439;-58
2023/07/03 01:17:17;;;;;;;6.93;4.80;;;15.80;64.00;;;;;;5056225;28;20482;-59
2023/07/03 01:19:48;;;;;;;6.53;3.87;;;15.80;64.40;;;;;;5055983;28;20447;-59
2023/07/03 01:22:20;;;;;;;6.53;3.80;;;15.70;64.60;;;;;;5055270;28;20475;-58
2023/07/03 01:24:51;;;;;;;6.13;3.67;;;15.70;65.00;;;;;;5055938;28;20433;-58
2023/07/03 01:27:22;;;;;;;4.30;3.33;;;15.70;65.10;;;;;;5055937;28;20432;-58
2023/07/03 01:29:51;;;;;;;9.23;4.53;;;15.80;65.40;;;;;;5055777;28;20480;-58
2023/07/03 01:32:19;;;;;;;11.60;4.33;;;15.80;65.50;;;;;;5055621;28;20483;-57
2023/07/03 01:34:48;;;;;;;9.90;4.30;;;15.80;65.50;;;;;;5055460;28;20444;-59
2023/07/03 01:37:16;;;;;;;8.57;4.53;;;15.90;65.70;;;;;;5055688;28;20482;-59
2023/07/03 01:39:46;;;;;;;6.97;3.77;;;15.90;65.80;;;;;;5055046;28;20448;-58
2023/07/03 01:42:14;;;;;;;6.73;4.07;;;15.90;65.90;;;;;;5055391;28;20468;-58
2023/07/03 01:44:41;;;;;;;10.23;4.00;;;15.90;65.90;;;;;;5055389;28;20798;-58
2023/07/03 01:47:10;;;;;;;7.20;4.10;;;15.90;66.00;;;;;;5055370;28;20447;-59
2023/07/03 01:49:37;;;;;;;6.97;4.73;;;15.90;66.10;;;;;;5055194;28;20440;-59
2023/07/03 01:52:11;;;;;;;9.43;4.77;;;15.80;66.20;;;;;;5055469;28;20467;-59
2023/07/03 01:54:44;;;;;;;10.17;4.90;;;15.80;66.40;;;;;;5055619;28;20431;-60
2023/07/03 01:57:32;;;;;;;8.00;4.40;;;15.80;66.40;;;;;;5054929;28;20468;-59
2023/07/03 02:00:02;;;;;;;5.80;3.77;;;15.90;66.30;;;;;;5055593;28;20428;-59
2023/07/03 02:02:31;;;;;;;7.50;4.00;;;15.90;66.20;;;;;;5055056;28;20650;-58
2023/07/03 02:05:03;;;;;;;7.50;3.80;;;15.90;66.20;;;;;;5054716;28;20837;-58
2023/07/03 02:07:31;;;;;;;8.20;4.07;;;16.00;66.20;;;;;;5054732;28;20910;-59
2023/07/03 02:09:58;;;;;;;6.87;3.83;;;16.00;66.20;;;;;;5055184;28;20436;-59
2023/07/03 02:12:26;;;;;;;7.90;4.30;;;16.00;66.30;;;;;;5054817;28;20467;-60
2023/07/03 02:14:53;;;;;;;10.03;3.67;;;16.00;66.30;;;;;;5054779;28;20444;-60
2023/07/03 02:17:19;;;;;;;8.57;4.43;;;16.10;66.50;;;;;;5054638;28;20818;-59
2023/07/03 02:19:46;;;;;;;9.03;4.13;;;16.10;66.50;;;;;;5054769;28;20444;-57
2023/07/03 02:22:13;;;;;;;9.43;4.57;;;16.10;66.70;;;;;;5054371;28;20526;-59
2023/07/03 02:24:40;;;;;;;11.50;4.33;;;16.10;66.80;;;;;;5054758;28;20444;-59
2023/07/03 02:27:07;;;;;;;6.47;4.20;;;16.10;67.00;;;;;;5054542;28;20452;-58
2023/07/03 02:29:35;;;;;;;10.23;5.23;;;16.00;67.80;;;;;;5054438;28;20451;-58
2023/07/03 02:32:02;;;;;;;8.23;3.87;;;16.00;67.50;;;;;;5054111;28;20479;-59
2023/07/03 02:34:28;;;;;;;9.27;4.73;;;16.00;67.70;;;;;;5054069;28;20826;-60
2023/07/03 02:36:58;;;;;;;12.33;5.37;;;16.00;68.00;;;;;;5054349;28;20483;-60
2023/07/03 02:39:25;;;;;;;7.90;4.17;;;16.00;68.20;;;;;;5054443;28;20514;-60
2023/07/03 02:41:52;;;;;;;9.47;3.90;;;16.00;68.40;;;;;;5054182;28;20460;-60
2023/07/03 02:44:18;;;;;;;11.83;5.00;;;16.00;68.70;;;;;;5053902;28;20979;-59
2023/07/03 02:46:47;;;;;;;9.17;4.60;;;16.00;68.90;;;;;;5054604;28;20451;-58
2023/07/03 02:49:13;;;;;;;7.40;5.07;;;16.00;69.20;;;;;;5054188;28;20444;-58
2023/07/03 02:51:40;;;;;;;7.57;4.60;;;16.00;69.50;;;;;;5052994;28;20464;-59
2023/07/03 02:54:07;;;;;;;9.70;5.30;;;16.00;69.70;;;;;;5054164;28;20444;-59
2023/07/03 02:56:34;;;;;;;8.10;4.20;;;16.00;69.80;;;;;;5053926;28;20451;-58
2023/07/03 02:59:00;;;;;;;10.03;5.57;;;16.00;70.30;;;;;;5053734;28;20480;-59
2023/07/03 03:01:27;;;;;;;9.03;4.70;;;15.90;70.70;;;;;;5053563;28;21001;-60
2023/07/03 03:03:58;;;;;;;8.33;4.33;;;15.90;71.10;;;;;;5053859;28;20444;-59
2023/07/03 03:06:25;;;;;;;12.43;5.00;;;15.90;71.60;;;;;;5053953;28;20432;-59
2023/07/03 03:08:51;;;;;;;7.00;4.67;;;15.90;72.00;;;;;;5053717;28;20448;-60
2023/07/03 03:11:18;;;;;;;10.87;4.90;;;15.90;72.40;;;;;;5053951;28;20484;-58
2023/07/03 03:13:45;;;;;;;11.07;4.20;;;15.90;72.60;;;;;;5053777;28;20820;-59
2023/07/03 03:16:11;;;;;;;10.00;4.77;;;15.90;72.70;;;;;;5053657;28;20445;-58
2023/07/03 03:18:38;;;;;;;14.87;4.97;;;15.90;73.10;;;;;;5053806;28;20491;-58
2023/07/03 03:21:06;;;;;;;9.27;4.83;;;16.00;73.30;;;;;;5053818;28;20466;-59
2023/07/03 03:23:33;;;;;;;14.20;5.10;;;16.00;73.50;;;;;;5053713;28;20444;-59
2023/07/03 03:26:00;;;;;;;9.80;4.10;;;16.00;73.80;;;;;;5053427;28;20440;-58
2023/07/03 03:28:26;;;;;;;9.37;4.80;;;16.00;74.10;;;;;;5053049;28;20440;-59
2023/07/03 03:30:53;;;;;;;12.17;4.50;;;16.00;74.30;;;;;;5053162;28;20471;-60
2023/07/03 03:33:20;;;;;;;15.77;5.40;;;16.00;74.50;;;;;;5053001;28;20526;-59
2023/07/03 03:35:47;;;;;;;8.13;4.20;;;16.00;75.00;;;;;;5053125;28;20447;-59
2023/07/03 03:38:15;;;;;;;8.77;4.80;;;16.00;75.40;;;;;;5053304;28;20537;-58
2023/07/03 03:40:53;;;;;;;12.50;5.03;;;16.00;75.80;;;;;;5053127;28;20483;-58
2023/07/03 03:43:19;;;;;;;8.90;4.57;;;16.00;76.20;;;;;;5053535;28;20440;-59
2023/07/03 03:45:54;;;;;;;12.60;5.40;;;15.90;76.80;;;;;;5054476;28;20455;-58
2023/07/03 03:48:20;;;;;;;8.80;4.70;;;15.90;77.10;;;;;;5053498;28;20424;-59
2023/07/03 03:50:47;;;;;;;10.63;4.93;;;15.90;77.60;;;;;;5053170;28;20468;-59
2023/07/03 03:53:15;;;;;;;8.80;4.53;;;15.90;78.00;;;;;;5053150;28;20440;-59
2023/07/03 03:55:43;;;;;;;7.97;5.20;;;15.90;78.20;;;;;;5053303;28;20448;-59
2023/07/03 03:58:10;;;;;;;10.73;5.87;;;15.90;78.60;;;;;;5052998;28;20502;-58
2023/07/03 04:00:36;;;;;;;8.50;5.23;;;15.90;78.90;;;;;;5052839;28;20475;-58
2023/07/03 04:03:03;;;;;;;11.70;5.00;;;15.90;79.10;;;;;;5052621;28;20447;-58
2023/07/03 04:05:30;;;;;;;14.23;5.10;;;16.00;79.50;;;;;;5052804;28;20440;-58
2023/07/03 04:07:57;;;;;;;12.43;5.00;;;16.20;79.30;;;;;;5052730;28;20857;-59
2023/07/03 04:11:55;;;;;;;10.20;5.80;;;16.40;78.20;;;;;;5091344;28;20562;-59
2023/07/03 04:14:21;;;;;;;12.50;5.07;;;16.50;78.40;;;;;;5091141;28;20993;-60
2023/07/03 04:16:50;;;;;;;11.70;5.30;;;16.80;78.30;;;;;;5090866;28;20446;-59
2023/07/03 04:19:18;;;;;;;14.43;4.80;;;17.30;76.50;;;;;;5090861;28;20442;-59
2023/07/03 04:21:45;;;;;;;13.73;6.17;;;17.70;74.60;;;;;;5090613;28;20450;-59
2023/07/03 04:24:12;;;;;;;9.73;5.00;;;18.10;73.00;;;;;;5090840;28;20830;-58
2023/07/03 04:26:40;;;;;;;16.20;5.43;;;18.30;71.10;;;;;;5090101;28;20443;-59
2023/07/03 04:29:08;;;;;;;6.20;3.90;;;18.20;70.40;;;;;;5090182;28;20450;-59
2023/07/03 04:31:35;;;;;;;10.17;5.00;;;18.00;70.50;;;;;;5090829;28;20486;-58
2023/07/03 04:34:03;;;;;;;11.60;5.37;;;17.70;71.10;;;;;;5090243;28;20450;-60
2023/07/03 04:36:30;;;;;;;8.90;4.40;;;17.50;71.80;;;;;;5100255;22;20483;-62
2023/07/03 04:38:57;;;;;;;8.00;4.33;;;17.30;72.40;;;;;;5070299;28;20825;-62
2023/07/03 04:41:24;;;;;;;8.60;5.23;;;17.10;73.00;;;;;;5069821;28;20500;-60
2023/07/03 04:43:51;;;;;;;11.63;5.10;;;16.90;73.80;;;;;;5070094;28;20439;-61
2023/07/03 04:46:23;;;;;;;10.20;4.50;;;16.90;74.50;;;;;;5070010;28;20459;-62
2023/07/03 04:48:50;;;;;;;9.73;4.60;;;17.10;75.60;;;;;;5069684;28;20459;-62
2023/07/03 04:51:17;;;;;;;11.27;4.60;;;17.60;74.70;;;;;;5069723;28;20475;-59
2023/07/03 04:53:43;;;;;;;11.60;5.07;;;18.20;73.00;;;;;;5069909;28;20444;-60
2023/07/03 04:56:11;;;;;;;9.30;4.90;;;18.70;70.80;;;;;;5069523;28;20475;-60
2023/07/03 04:58:39;;;;;;;13.23;4.53;;;19.00;68.90;;;;;;5069476;28;20458;-60
2023/07/03 05:01:06;;;;;;;10.70;4.63;;;19.30;67.40;;;;;;5068677;28;20451;-61
2023/07/03 05:03:34;;;;;;;11.20;5.10;;;19.50;65.90;;;;;;5069696;28;20445;-60
2023/07/03 05:06:01;;;;;;;7.90;4.83;;;19.70;64.70;;;;;;5069664;28;20462;-59
2023/07/03 05:08:28;;;;;;;8.80;4.27;;;19.90;64.00;;;;;;5068942;28;20963;-61
2023/07/03 05:10:54;;;;;;;12.00;4.33;;;20.10;63.10;;;;;;5068888;28;20485;-62
2023/07/03 05:13:21;;;;;;;7.87;4.83;;;20.00;61.90;;;;;;5069597;28;20447;-59
2023/07/03 05:15:48;;;;;;;6.83;4.30;;;19.80;61.70;;;;;;5069139;28;20465;-59
2023/07/03 05:18:15;;;;;;;12.03;3.80;;;19.80;61.80;;;;;;5069040;28;20474;-59
2023/07/03 05:20:44;;;;;;;12.03;5.83;;;19.70;62.20;;;;;;5069001;28;20445;-58
2023/07/03 05:23:13;;;;;;;11.63;4.43;;;19.60;61.20;;;;;;5056181;28;20488;-59
2023/07/03 05:25:40;;;;;;;13.60;6.23;;;19.40;61.30;;;;;;5055914;28;20464;-59
2023/07/03 05:28:07;;;;;;;13.20;4.13;;;19.20;61.50;;;;;;5056072;28;20937;-60
2023/07/03 05:30:33;;;;;;;9.83;4.63;;;19.10;61.90;;;;;;5055662;28;20477;-60
2023/07/03 05:33:00;;;;;;;9.80;4.20;;;18.90;62.10;;;;;;5055718;28;20825;-59
2023/07/03 05:35:27;;;;;;;11.73;4.53;;;18.70;62.40;;;;;;5055474;28;20472;-59
2023/07/03 05:37:56;;;;;;;10.70;4.10;;;18.70;63.00;;;;;;5055276;28;20444;-60
2023/07/03 05:40:23;;;;;;;7.67;4.60;;;18.50;63.20;;;;;;5055643;28;20454;-61
2023/07/03 05:42:50;;;;;;;13.93;4.80;;;18.40;63.70;;;;;;5055670;28;20478;-60
2023/07/03 05:45:17;;;;;;;9.10;3.93;;;18.30;64.00;;;;;;5055899;28;20472;-60
2023/07/03 05:47:43;;;;;;;11.40;4.23;;;18.20;64.10;;;;;;5055582;28;20446;-63
2023/07/03 05:50:11;;;;;;;10.13;4.40;;;18.20;64.40;;;;;;5055623;28;20444;-60
2023/07/03 05:52:40;;;;;;;8.37;3.70;;;18.30;64.50;;;;;;5055029;28;20482;-60
2023/07/03 05:55:09;;;;;;;8.30;2.90;;;18.30;64.50;;;;;;5054920;28;20490;-61
2023/07/03 05:57:36;;;;;;;8.70;3.60;;;18.40;64.40;;;;;;5054718;28;21015;-60
2023/07/03 06:00:05;;;;;;;7.30;3.87;;;18.50;64.20;;;;;;5055094;28;20455;-60
2023/07/03 06:02:32;;;;;;;11.43;4.77;;;18.70;63.90;;;;;;5054552;28;20937;-62
2023/07/03 06:04:59;;;;;;;9.23;4.00;;;18.80;63.30;;;;;;5054290;28;20445;-61
2023/07/03 06:07:26;;;;;;;11.47;3.10;;;18.80;63.20;;;;;;5054372;28;20444;-61
2023/07/03 06:09:53;;;;;;;13.00;4.30;;;18.90;63.00;;;;;;5054793;28;20543;-60
2023/07/03 06:12:21;;;;;;;7.50;3.30;;;18.90;62.60;;;;;;5055038;28;20491;-62
2023/07/03 06:14:48;;;;;;;10.73;4.40;;;18.90;62.30;;;;;;5054634;28;20539;-61
2023/07/03 06:17:15;;;;;;;9.00;3.27;;;19.00;62.20;;;;;;5054888;28;20871;-61
2023/07/03 06:19:41;;;;;;;14.87;5.07;;;19.10;62.00;;;;;;5055757;28;20453;-62
2023/07/03 06:22:08;;;;;;;9.63;3.30;;;19.20;61.40;;;;;;5055538;28;20463;-60
2023/07/03 06:24:35;;;;;;;9.33;4.13;;;19.20;61.00;;;;;;5056223;28;20789;-59
2023/07/03 06:27:02;;;;;;;12.13;4.80;;;19.10;61.00;;;;;;5055500;28;20464;-59
2023/07/03 06:29:31;;;;;;;9.83;3.93;;;19.00;61.00;;;;;;5055162;28;20447;-59
2023/07/03 06:31:57;;;;;;;10.07;3.93;;;18.90;61.10;;;;;;5054708;28;20854;-60
2023/07/03 06:34:24;;;;;;;13.30;4.20;;;18.90;61.20;;;;;;5054073;28;20451;-60
2023/07/03 06:36:51;;;;;;;13.30;5.37;;;19.00;61.30;;;;;;5054380;28;20895;-59
2023/07/03 06:39:17;;;;;;;12.30;4.20;;;19.10;61.10;;;;;;5055197;28;20443;-59
2023/07/03 06:41:44;;;;;;;7.70;4.03;;;19.10;61.00;;;;;;5055056;28;20938;-61
2023/07/03 06:44:13;;;;;;;13.23;4.57;;;19.00;60.90;;;;;;5055184;28;20440;-63
2023/07/03 06:46:42;;;;;;;9.00;3.70;;;18.90;60.90;;;;;;5053940;28;20468;-59
2023/07/03 06:49:08;;;;;;;14.03;4.60;;;18.80;61.00;;;;;;5053893;28;20910;-60
2023/07/03 06:51:36;;;;;;;10.03;3.90;;;18.60;61.20;;;;;;5053819;28;20483;-61
2023/07/03 06:54:03;;;;;;;10.83;4.00;;;18.60;61.50;;;;;;5053588;28;20530;-61
2023/07/03 06:56:30;;;;;;;9.20;3.77;;;18.60;61.70;;;;;;5053947;28;20571;-59
2023/07/03 06:58:57;;;;;;;10.93;3.60;;;18.60;61.90;;;;;;5054203;28;20539;-61
2023/07/03 07:01:27;;;;;;;7.90;3.80;;;18.70;61.90;;;;;;5054304;28;20440;-61
2023/07/03 07:03:56;;;;;;;10.93;3.50;;;18.70;61.80;;;;;;5054123;28;20429;-61
2023/07/03 07:06:25;;;;;;;8.37;3.80;;;18.80;61.80;;;;;;5053662;28;20475;-61
2023/07/03 07:08:52;;;;;;;12.27;4.20;;;18.90;61.90;;;;;;5053458;28;20820;-61
2023/07/03 07:11:21;;;;;;;7.97;3.60;;;19.00;61.50;;;;;;5055664;28;21017;-61
2023/07/03 07:13:50;;;;;;;17.03;4.40;;;19.10;61.30;;;;;;5054818;28;20450;-61
2023/07/03 07:16:19;;;;;;;10.77;4.50;;;19.20;61.20;;;;;;5054375;28;20839;-60
2023/07/03 07:18:48;;;;;;;9.13;3.97;;;19.30;60.80;;;;;;5053497;28;20519;-60
2023/07/03 07:21:16;;;;;;;10.33;4.50;;;19.50;60.40;;;;;;5053240;28;20449;-60
2023/07/03 07:23:43;;;;;;;13.13;4.10;;;19.60;60.20;;;;;;5053268;28;20474;-60
2023/07/03 07:26:09;;;;;;;10.47;4.30;;;19.80;59.80;;;;;;5052826;28;20934;-60
2023/07/03 07:28:36;;;;;;;9.80;3.30;;;20.00;59.60;;;;;;5053722;28;21022;-60
2023/07/03 07:31:03;;;;;;;9.43;3.47;;;20.10;59.10;;;;;;5053771;28;20520;-60
2023/07/03 07:33:30;;;;;;;10.77;4.23;;;20.10;58.80;;;;;;5053909;28;20475;-61
2023/07/03 07:35:57;;;;;;;13.00;4.13;;;20.10;58.80;;;;;;5053393;28;20492;-60
2023/07/03 07:38:25;;;;;;;10.87;5.03;;;20.00;58.80;;;;;;5053803;28;20959;-59
2023/07/03 07:41:01;;;;;;;15.70;4.80;;;19.80;59.00;;;;;;5053774;28;20862;-61
2023/07/03 07:43:28;;;;;;;10.77;4.13;;;19.70;59.40;;;;;;5053891;28;20428;-61
2023/07/03 07:45:55;;;;;;;9.87;4.90;;;19.50;59.80;;;;;;5053444;28;20807;-60
2023/07/03 07:48:22;;;;;;;8.80;3.77;;;19.40;60.10;;;;;;5054064;28;20966;-62
2023/07/03 07:50:48;;;;;;;14.90;4.40;;;19.30;60.50;;;;;;5054598;28;20448;-61
2023/07/03 07:53:15;;;;;;;15.73;5.37;;;19.20;60.80;;;;;;5057714;28;20443;-61
2023/07/03 07:55:43;;;;;;;14.80;5.20;;;19.10;61.10;;;;;;5053410;28;20475;-60
2023/07/03 07:58:10;;;;;;;14.93;5.00;;;19.00;61.30;;;;;;5052932;28;20443;-62
2023/07/03 08:00:37;;;;;;;13.57;4.60;;;19.00;61.60;;;;;;5052878;28;20444;-60
2023/07/03 08:03:04;;;;;;;11.67;5.03;;;18.90;61.80;;;;;;5053004;28;20443;-60
2023/07/03 08:05:31;;;;;;;15.23;5.00;;;18.80;62.10;;;;;;5053111;28;20460;-60
2023/07/03 08:07:57;;;;;;;14.57;5.10;;;18.70;62.60;;;;;;5052784;28;20448;-59
2023/07/03 08:10:24;;;;;;;17.20;5.17;;;18.80;63.10;;;;;;5052658;28;20448;-60
2023/07/03 08:12:52;;;;;;;11.50;4.63;;;18.90;63.20;;;;;;5053068;28;20486;-61
2023/07/03 08:15:19;;;;;;;11.70;5.73;;;19.00;63.10;;;;;;5052468;28;20529;-59
2023/07/03 08:17:46;;;;;;;21.43;5.70;;;19.00;63.10;;;;;;5052875;28;20440;-60
2023/07/03 08:20:13;;;;;;;12.77;4.67;;;19.00;63.10;;;;;;5052979;28;20460;-60
2023/07/03 08:22:41;;;;;;;10.70;4.90;;;18.90;63.20;;;;;;5052910;28;20440;-61
2023/07/03 08:25:09;;;;;;;12.80;5.30;;;18.90;63.50;;;;;;5052993;28;20451;-60
2023/07/03 08:27:36;;;;;;;23.23;6.10;;;19.10;63.30;;;;;;5053302;28;20554;-61
2023/07/03 08:30:06;;;;;;;16.73;5.80;;;19.20;63.10;;;;;;5052562;28;20444;-61
2023/07/03 08:32:33;;;;;;;15.27;5.80;;;19.40;63.00;;;;;;5052842;28;20915;-61
2023/07/03 08:35:00;;;;;;;7.77;4.77;;;19.50;62.90;;;;;;5052486;28;20515;-60
2023/07/03 08:37:27;;;;;;;12.17;6.00;;;19.80;62.40;;;;;;5052809;28;20807;-60
2023/07/03 08:39:54;;;;;;;13.80;6.13;;;20.10;61.90;;;;;;5052409;28;20449;-60
2023/07/03 08:42:24;;;;;;;10.53;5.17;;;20.40;60.90;;;;;;5052182;28;20440;-60
2023/07/03 08:44:51;;;;;;;11.70;6.20;;;20.60;60.40;;;;;;5052288;28;20848;-59
2023/07/03 08:47:23;;;;;;;9.17;4.90;;;20.80;60.00;;;;;;5052781;28;20468;-60
2023/07/03 08:49:52;;;;;;;13.97;5.60;;;21.10;59.60;;;;;;5052961;28;20439;-59
2023/07/03 08:52:25;;;;;;;12.77;5.57;;;21.30;59.00;;;;;;5051887;28;20844;-60
2023/07/03 08:54:53;;;;;;;9.43;4.77;;;21.30;58.20;;;;;;5052407;28;20534;-61
2023/07/03 08:57:21;;;;;;;9.67;6.00;;;21.30;57.90;;;;;;5054864;28;20538;-60
2023/07/03 08:59:48;;;;;;;8.73;4.57;;;21.30;57.90;;;;;;5056278;28;20443;-59
2023/07/03 09:02:24;;;;;;;10.30;5.37;;;21.30;58.00;;;;;;5056130;28;20963;-61
2023/07/03 09:05:17;;;;;;;12.90;5.13;;;21.30;57.90;;;;;;5057114;28;20420;-62
2023/07/03 09:07:47;;;;;;;12.00;6.30;;;21.00;58.10;;;;;;5056300;28;20437;-61
2023/07/03 09:10:19;;;;;;;14.03;5.07;;;20.90;58.60;;;;;;5056248;28;20816;-60
2023/07/03 09:13:05;;;;;;;9.47;5.30;;;20.70;58.90;;;;;;5055788;28;20462;-59
2023/07/03 09:15:36;;;;;;;11.57;5.57;;;20.60;59.20;;;;;;5056359;28;20466;-61
2023/07/03 09:18:12;;;;;;;11.00;5.30;;;20.60;59.40;;;;;;5056695;28;20435;-62
2023/07/03 09:20:41;;;;;;;10.20;4.40;;;20.60;59.00;;;;;;5056317;28;20434;-60
2023/07/03 09:23:12;;;;;;;8.60;4.43;;;20.90;58.90;;;;;;5056430;28;20487;-61
2023/07/03 09:25:43;;;;;;;10.90;5.37;;;21.00;58.00;;;;;;5056363;28;20473;-61
2023/07/03 09:28:10;;;;;;;10.03;4.60;;;21.10;57.70;;;;;;5056180;28;20453;-60
2023/07/03 09:30:37;;;;;;;13.47;4.93;;;21.10;57.00;;;;;;5056643;28;20447;-60
2023/07/03 09:33:06;;;;;;;9.90;4.80;;;21.00;56.80;;;;;;5055351;28;20485;-60
2023/07/03 09:35:36;;;;;;;12.27;4.17;;;21.10;56.80;;;;;;5055357;28;20536;-60
2023/07/03 09:38:05;;;;;;;10.97;4.30;;;21.20;56.60;;;;;;5055574;28;20501;-60
2023/07/03 09:40:35;;;;;;;7.57;4.27;;;21.40;56.00;;;;;;5055528;28;20493;-60
2023/07/03 09:43:02;;;;;;;16.67;4.67;;;21.50;54.90;;;;;;5055388;28;20445;-61
2023/07/03 09:45:32;;;;;;;9.43;3.93;;;21.60;54.50;;;;;;5055246;28;20984;-61
2023/07/03 09:48:02;;;;;;;8.83;4.03;;;21.90;53.80;;;;;;5055746;28;20455;-60
2023/07/03 09:50:34;;;;;;;10.23;4.10;;;22.20;53.30;;;;;;5055129;28;20495;-60
2023/07/03 09:53:03;;;;;;;8.30;4.43;;;22.40;52.90;;;;;;5055625;28;20475;-59
2023/07/03 09:55:30;;;;;;;9.90;4.20;;;22.70;52.50;;;;;;5054906;28;20558;-62
2023/07/03 09:57:57;;;;;;;12.83;5.17;;;22.50;52.10;;;;;;5055624;28;20448;-60
2023/07/03 10:00:26;;;;;;;9.57;4.93;;;22.20;52.30;;;;;;5055022;28;20454;-60
2023/07/03 10:02:55;;;;;;;12.50;5.17;;;21.80;53.30;;;;;;5055569;28;20443;-60
2023/07/03 10:05:31;;;;;;;8.20;4.80;;;21.60;53.50;;;;;;5054906;28;20479;-60
2023/07/03 10:08:02;;;;;;;9.77;4.50;;;21.40;53.80;;;;;;5055200;28;20439;-61
2023/07/03 10:10:33;;;;;;;8.97;4.50;;;21.30;54.00;;;;;;5054830;28;20447;-61
2023/07/03 10:13:05;;;;;;;16.33;5.37;;;21.20;54.00;;;;;;5054998;28;20465;-62
2023/07/03 10:15:34;;;;;;;15.83;5.60;;;21.00;54.00;;;;;;5054403;28;20466;-60
2023/07/03 10:18:05;;;;;;;18.90;5.13;;;20.70;54.40;;;;;;5054655;28;20560;-61
2023/07/03 10:20:36;;;;;;;10.73;4.80;;;20.60;54.80;;;;;;5054826;28;20449;-61
2023/07/03 10:23:07;;;;;;;8.93;4.37;;;20.50;55.10;;;;;;5055150;28;20434;-59
2023/07/03 10:25:39;;;;;;;9.90;4.90;;;20.30;55.90;;;;;;5054499;28;20484;-60
2023/07/03 10:28:11;;;;;;;13.30;5.17;;;20.00;56.80;;;;;;5054473;28;20447;-58
2023/07/03 10:30:40;;;;;;;9.00;4.30;;;19.80;57.40;;;;;;5054585;28;20433;-60
2023/07/03 10:33:11;;;;;;;7.83;4.40;;;19.70;57.50;;;;;;5054034;28;20541;-61
2023/07/03 10:35:42;;;;;;;8.20;3.93;;;19.70;57.30;;;;;;5054382;28;20587;-59
2023/07/03 10:38:16;;;;;;;8.37;4.00;;;19.80;56.60;;;;;;5085495;22;20552;-59
2023/07/03 10:40:51;;;;;;;9.30;5.47;;;19.90;56.00;;;;;;5077005;28;20940;-60
2023/07/03 10:43:21;;;;;;;10.57;4.50;;;20.00;56.10;;;;;;5076763;28;20433;-60
2023/07/03 10:45:49;;;;;;;8.27;3.57;;;20.10;56.60;;;;;;5076662;28;20448;-59
2023/07/03 10:48:19;;;;;;;8.20;5.37;;;20.10;57.00;;;;;;5076044;28;20813;-59
2023/07/03 10:50:59;;;;;;;9.60;4.13;;;20.30;57.50;;;;;;5076001;28;20972;-57
2023/07/03 10:53:32;;;;;;;8.17;4.53;;;20.60;57.30;;;;;;5075300;28;20474;-59
2023/07/03 10:56:07;;;;;;;9.93;5.07;;;20.80;57.00;;;;;;5075581;28;20421;-58
2023/07/03 10:58:41;;;;;;;10.60;4.80;;;21.00;56.80;;;;;;5074809;28;20463;-60
2023/07/03 11:01:15;;;;;;;9.20;4.73;;;21.00;56.80;;;;;;5074981;28;20428;-58
2023/07/03 11:03:51;;;;;;;10.20;5.00;;;21.00;57.00;;;;;;5074317;28;20437;-59
2023/07/03 11:06:29;;;;;;;11.73;4.47;;;21.00;57.00;;;;;;5074770;28;20433;-59
2023/07/03 11:09:03;;;;;;;8.60;3.80;;;21.10;56.80;;;;;;5075027;28;20466;-57
2023/07/03 11:11:40;;;;;;;10.90;4.10;;;21.30;56.60;;;;;;5075064;28;20491;-58
2023/07/03 11:14:11;;;;;;;7.40;4.40;;;21.50;56.20;;;;;;5075537;28;20453;-59
2023/07/03 11:16:52;;;;;;;11.47;5.20;;;21.60;55.80;;;;;;5075144;28;20433;-60
2023/07/03 11:19:29;;;;;;;16.30;4.27;;;21.70;55.50;;;;;;5075324;28;20470;-61
2023/07/03 11:22:05;;;;;;;11.57;4.60;;;21.90;55.20;;;;;;5075736;28;20767;-61
2023/07/03 11:24:39;;;;;;;8.47;4.07;;;22.00;54.90;;;;;;5075711;28;20433;-60
2023/07/03 11:27:14;;;;;;;11.30;4.30;;;22.00;53.90;;;;;;5074783;28;20816;-59
2023/07/03 11:29:42;;;;;;;7.90;3.20;;;22.00;53.20;;;;;;5074728;28;20541;-58
2023/07/03 11:32:10;;;;;;;7.30;3.40;;;22.10;52.70;;;;;;5074810;28;20478;-58
2023/07/03 11:34:37;;;;;;;11.40;3.83;;;22.40;51.90;;;;;;5074952;28;20459;-59
2023/07/03 11:37:34;;;;;;;6.23;3.93;;;22.40;51.00;;;;;;5074511;28;20811;-60
2023/07/03 11:40:24;;;;;;;9.10;4.50;;;22.40;50.80;;;;;;5074823;28;20428;-59
2023/07/03 11:43:15;;;;;;;6.87;3.50;;;22.40;50.60;;;;;;5074896;28;20419;-58
2023/07/03 11:45:50;;;;;;;12.43;4.17;;;22.40;50.10;;;;;;5074699;28;20442;-59
2023/07/03 11:48:27;;;;;;;7.93;3.57;;;22.20;50.20;;;;;;5075828;28;20454;-62
2023/07/03 11:50:56;;;;;;;7.63;3.50;;;22.10;50.10;;;;;;5077033;28;20427;-58
2023/07/03 11:53:34;;;;;;;5.90;4.30;;;21.90;50.30;;;;;;5075130;28;20486;-59
2023/07/03 11:56:01;;;;;;;8.70;3.13;;;21.90;50.10;;;;;;5075477;28;20931;-60
2023/07/03 11:58:32;;;;;;;6.07;3.70;;;21.90;49.30;;;;;;5074914;28;20466;-56
2023/07/03 12:01:29;;;;;;;5.10;3.40;;;22.10;48.70;;;;;;5074689;28;20813;-60
2023/07/03 12:03:58;;;;;;;5.13;2.90;;;22.20;47.50;;;;;;5075191;28;20465;-58
2023/07/03 12:06:45;;;;;;;7.40;3.20;;;22.30;46.80;;;;;;5074765;28;20447;-59
2023/07/03 12:09:31;;;;;;;10.20;3.80;;;22.40;46.60;;;;;;5074441;28;20467;-59
2023/07/03 12:12:27;;;;;;;5.50;2.77;;;22.70;46.30;;;;;;5075111;28;20477;-58
2023/07/03 12:14:57;;;;;;;6.50;3.20;;;23.60;45.00;;;;;;5028625;28;20451;-58
2023/07/03 12:17:27;;;;;;;9.60;3.20;;;24.30;43.90;;;;;;5074683;28;20444;-58
2023/07/03 12:19:57;;;;;;;7.97;3.47;;;24.80;43.00;;;;;;5074853;28;20956;-60
2023/07/03 12:22:26;;;;;;;8.60;3.13;;;24.60;42.60;;;;;;5074768;28;20925;-59
2023/07/03 12:25:07;;;;;;;6.40;3.20;;;24.10;43.10;;;;;;5074761;28;20440;-58
2023/07/03 12:27:34;;;;;;;5.90;2.53;;;23.70;44.00;;;;;;5074758;28;20427;-58
2023/07/03 12:30:02;;;;;;;10.10;2.73;;;24.10;44.00;;;;;;5074603;28;20470;-60
2023/07/03 12:32:31;;;;;;;5.60;2.40;;;24.70;42.60;;;;;;5076227;28;20989;-56
2023/07/03 12:35:10;;;;;;;7.80;3.07;;;25.00;41.90;;;;;;5078099;28;20543;-60
2023/07/03 12:37:43;;;;;;;6.03;2.77;;;25.60;41.30;;;;;;5077849;28;20426;-60
2023/07/03 12:40:13;;;;;;;6.37;3.23;;;26.10;40.50;;;;;;5077873;28;20797;-59
2023/07/03 12:42:39;;;;;;;5.83;2.37;;;26.30;40.40;;;;;;5077642;28;20440;-59
2023/07/03 12:45:15;;;;;;;5.80;3.13;;;26.30;40.30;;;;;;5077998;28;20473;-59
2023/07/03 12:47:43;;;;;;;8.23;3.00;;;25.90;40.00;;;;;;5077540;28;20546;-59
2023/07/03 12:50:14;;;;;;;6.10;2.60;;;25.10;41.20;;;;;;5077826;28;20932;-57
2023/07/03 12:52:41;;;;;;;9.53;3.70;;;24.80;42.10;;;;;;5077719;28;20582;-59
2023/07/03 12:55:11;;;;;;;8.37;2.70;;;24.50;41.30;;;;;;5078137;28;20444;-60